Current Weather



TAF Data Links

METAR Data Links

Latest METAR/TAF Data


Available data for KAUS from the past 2 hours
AUSTIN, TX
Metar
KAUS 180053Z 15011KT 10SM FEW070 36/20 A2977 RMK AO2 SLP066 T03610200 $

00:53 UTC

Wind: 150° 11kt

Visibility: 10 SM

Sky: FEW 7000 ft

Temp: 36 deg C / 96.8 deg F

Dewpoint: 20 deg C / 68 deg F

Pressure: 29.77 inHg

TAF
KAUS 172320Z 1800/1906 16007KT P6SM FEW070 FM180800 18010KT P6SM SCT015 TEMPO 1810/1814 BKN015 FM181600 18010KT P6SM FEW040


Available data for KEDC from the past 2 hours
AUSTIN EXEC, TX
Metar
KEDC 180055Z AUTO 15007KT 10SM CLR 34/19 A2978 RMK AO2

00:55 UTC

Wind: 150° 7kt

Visibility: 10 SM

Sky:

Temp: 34 deg C / 93.2 deg F

Dewpoint: 19 deg C / 66.2 deg F

Pressure: 29.78 inHg



Available data for KRYW from the past 2 hours
LAGO VISTA, TX
Metar
KRYW 180055Z AUTO 14005KT 10SM CLR 33/19 A2982 RMK AO2 T03320187

00:55 UTC

Wind: 140° 5kt

Visibility: 10 SM

Sky:

Temp: 33 deg C / 91.4 deg F

Dewpoint: 19 deg C / 66.2 deg F

Pressure: 29.82 inHg